Time;durP1;ratioP1;P1;durP2;ratioP2;P2;SDS_P1;SDS_P2;PMS_P1;PMS_P2;Temp;Humidity;BMP_temperature;BMP_pressure;BME280_temperature;BME280_humidity;BME280_pressure;Samples;Min_cycle;Max_cycle;Signal;HPM_P1;HPM_P2
2023/01/25 00:01:31;;;;;;;62.28;32.10;;;2.10;99.90;;;;;;5049874;28;20075;-76
2023/01/25 00:03:57;;;;;;;62.42;31.92;;;2.10;99.90;;;;;;5044590;28;20035;-77
2023/01/25 00:06:23;;;;;;;61.13;30.55;;;2.10;99.90;;;;;;5050995;28;20381;-77
2023/01/25 00:08:51;;;;;;;58.17;31.23;;;2.10;99.90;;;;;;5032610;28;20495;-76
2023/01/25 00:11:18;;;;;;;58.28;30.50;;;2.10;99.90;;;;;;5050243;28;20052;-76
2023/01/25 00:13:44;;;;;;;60.53;31.33;;;2.10;99.90;;;;;;5046364;28;20100;-77
2023/01/25 00:16:10;;;;;;;59.08;31.52;;;2.10;99.90;;;;;;5041251;28;20101;-76
2023/01/25 00:18:35;;;;;;;60.85;31.33;;;2.10;99.90;;;;;;5049702;28;20036;-76
2023/01/25 00:21:18;;;;;;;59.00;29.52;;;2.10;99.90;;;;;;5049682;28;20032;-76
2023/01/25 00:23:44;;;;;;;58.20;29.80;;;2.10;99.90;;;;;;5050770;28;20103;-76
2023/01/25 00:26:10;;;;;;;59.85;31.65;;;2.10;99.90;;;;;;5026656;28;20108;-77
2023/01/25 00:28:36;;;;;;;58.97;31.05;;;2.10;99.90;;;;;;5036799;28;20079;-77
2023/01/25 00:31:04;;;;;;;59.78;31.30;;;2.10;99.90;;;;;;5045002;28;20464;-76
2023/01/25 00:33:50;;;;;;;58.35;30.73;;;2.10;99.90;;;;;;5039353;28;20387;-76
2023/01/25 00:36:33;;;;;;;60.03;30.95;;;2.10;99.90;;;;;;5045310;28;20017;-76
2023/01/25 00:38:59;;;;;;;59.42;30.20;;;2.10;99.90;;;;;;5030897;28;20053;-76
2023/01/25 00:41:25;;;;;;;61.78;31.20;;;2.10;99.90;;;;;;5041651;28;20033;-76
2023/01/25 00:43:50;;;;;;;59.25;31.67;;;2.10;99.90;;;;;;5032444;28;20017;-76
2023/01/25 00:46:17;;;;;;;62.25;31.48;;;2.10;99.90;;;;;;5047563;28;20471;-76
2023/01/25 00:48:43;;;;;;;64.18;31.75;;;2.10;99.90;;;;;;5019862;28;20372;-76
2023/01/25 00:51:09;;;;;;;61.70;31.83;;;2.10;99.90;;;;;;5041356;28;20040;-76
2023/01/25 00:53:35;;;;;;;62.35;31.80;;;2.10;99.90;;;;;;5036135;28;20036;-77
2023/01/25 00:56:00;;;;;;;68.35;32.33;;;2.10;99.90;;;;;;5040711;28;20103;-76
2023/01/25 00:58:26;;;;;;;62.22;31.63;;;2.10;99.90;;;;;;5049502;28;20021;-76
2023/01/25 01:00:53;;;;;;;60.85;31.95;;;2.10;99.90;;;;;;5050041;28;20468;-76
2023/01/25 01:03:19;;;;;;;60.50;31.33;;;2.10;99.90;;;;;;5040942;28;20059;-77
2023/01/25 01:05:44;;;;;;;64.65;32.20;;;2.10;99.90;;;;;;5049835;28;20055;-76
2023/01/25 01:08:11;;;;;;;62.53;32.17;;;2.10;99.90;;;;;;5035884;28;20021;-76
2023/01/25 01:10:37;;;;;;;63.80;32.55;;;2.10;99.90;;;;;;5019026;28;20021;-76
2023/01/25 01:13:02;;;;;;;64.32;31.38;;;2.10;99.90;;;;;;5037402;28;20495;-76
2023/01/25 01:15:28;;;;;;;61.60;31.60;;;2.10;99.90;;;;;;5013094;28;20021;-76
2023/01/25 01:17:54;;;;;;;60.30;31.88;;;2.10;99.90;;;;;;5029145;28;20036;-75
2023/01/25 01:20:20;;;;;;;60.78;31.55;;;2.00;99.90;;;;;;5032436;28;20025;-75
2023/01/25 01:22:45;;;;;;;64.53;31.63;;;2.00;99.90;;;;;;5050148;28;20187;-75
2023/01/25 01:25:12;;;;;;;58.88;31.48;;;2.00;99.90;;;;;;5039125;28;20009;-75
2023/01/25 01:27:38;;;;;;;63.08;32.97;;;1.90;99.90;;;;;;5014308;28;20026;-76
2023/01/25 01:30:05;;;;;;;66.63;33.85;;;1.80;99.90;;;;;;5042410;28;20411;-76
2023/01/25 01:32:30;;;;;;;61.70;32.33;;;1.80;99.90;;;;;;5045319;28;20021;-75
2023/01/25 01:34:56;;;;;;;66.70;34.72;;;1.80;99.90;;;;;;5037856;28;20431;-75
2023/01/25 01:37:21;;;;;;;65.43;33.45;;;1.80;99.90;;;;;;5044411;28;20475;-75
2023/01/25 01:39:47;;;;;;;65.32;32.38;;;1.80;99.90;;;;;;5046456;28;20079;-76
2023/01/25 01:42:13;;;;;;;66.90;33.45;;;1.80;99.90;;;;;;5043683;28;20079;-76
2023/01/25 01:44:52;;;;;;;69.75;34.25;;;1.80;99.90;;;;;;5045580;28;20711;-75
2023/01/25 01:47:26;;;;;;;66.53;32.55;;;1.90;99.90;;;;;;5036178;28;20826;-75
2023/01/25 01:50:00;;;;;;;70.28;33.92;;;1.90;99.90;;;;;;5044619;28;20147;-75
2023/01/25 01:52:34;;;;;;;64.15;32.58;;;1.90;99.90;;;;;;5046010;28;20033;-75
2023/01/25 01:55:11;;;;;;;70.47;34.95;;;1.90;99.90;;;;;;5039598;28;20032;-75
2023/01/25 01:57:42;;;;;;;66.75;33.13;;;1.90;99.90;;;;;;5048282;28;20083;-75
2023/01/25 02:00:13;;;;;;;72.35;35.25;;;1.90;99.90;;;;;;5050993;28;20442;-75
2023/01/25 02:02:39;;;;;;;67.95;34.60;;;1.90;99.90;;;;;;5040977;28;20029;-75
2023/01/25 02:05:10;;;;;;;65.07;33.35;;;1.90;99.90;;;;;;5047271;28;20029;-75
2023/01/25 02:07:37;;;;;;;68.47;34.28;;;1.80;99.90;;;;;;5027426;28;20025;-75
2023/01/25 02:10:10;;;;;;;71.03;35.22;;;1.80;99.90;;;;;;5034388;28;20246;-76
2023/01/25 02:12:36;;;;;;;71.97;34.72;;;1.90;99.90;;;;;;5052820;28;20024;-75
2023/01/25 02:15:03;;;;;;;71.88;35.42;;;1.90;99.90;;;;;;5045826;28;20026;-76
2023/01/25 02:17:34;;;;;;;70.43;35.10;;;1.90;99.90;;;;;;5039868;28;20079;-75
2023/01/25 02:20:23;;;;;;;69.05;34.58;;;1.90;99.90;;;;;;5045718;28;20044;-75
2023/01/25 02:23:07;;;;;;;67.82;33.88;;;1.90;99.90;;;;;;5034802;28;20040;-75
2023/01/25 02:25:32;;;;;;;66.43;33.72;;;1.90;99.90;;;;;;5046631;28;20101;-75
2023/01/25 02:28:18;;;;;;;68.32;34.17;;;1.90;99.90;;;;;;5043216;28;20117;-76
2023/01/25 02:30:44;;;;;;;71.07;33.67;;;2.00;99.90;;;;;;5049962;28;20048;-75
2023/01/25 02:33:10;;;;;;;68.00;33.17;;;1.90;99.90;;;;;;5052669;28;20114;-75
2023/01/25 02:35:41;;;;;;;73.90;36.08;;;1.90;99.90;;;;;;5040340;28;20040;-76
2023/01/25 02:38:10;;;;;;;68.82;34.38;;;1.90;99.90;;;;;;5040357;28;20531;-75
2023/01/25 02:40:54;;;;;;;69.45;34.90;;;1.90;99.90;;;;;;5039612;28;20108;-75
2023/01/25 02:43:22;;;;;;;70.47;34.65;;;1.90;99.90;;;;;;5037935;28;20041;-75
2023/01/25 02:45:53;;;;;;;69.25;33.90;;;1.90;99.90;;;;;;5045572;28;20017;-75
2023/01/25 02:48:19;;;;;;;72.70;34.75;;;1.90;99.90;;;;;;5051020;28;20039;-75
2023/01/25 02:50:44;;;;;;;74.72;37.05;;;1.90;99.90;;;;;;5048622;28;20124;-76
2023/01/25 02:53:10;;;;;;;73.05;35.40;;;1.80;99.90;;;;;;5041297;28;20067;-75
2023/01/25 02:55:36;;;;;;;68.35;33.05;;;1.80;99.90;;;;;;5042338;28;20022;-75
2023/01/25 02:58:01;;;;;;;68.45;33.88;;;1.90;99.90;;;;;;5049387;28;20029;-75
2023/01/25 03:00:27;;;;;;;67.65;33.25;;;1.90;99.90;;;;;;5049872;28;20468;-75
2023/01/25 03:02:53;;;;;;;66.47;33.70;;;1.90;99.90;;;;;;5051559;28;20033;-75
2023/01/25 03:05:18;;;;;;;73.25;35.20;;;1.90;99.90;;;;;;5032190;28;20596;-75
2023/01/25 03:07:44;;;;;;;71.68;34.83;;;1.90;99.90;;;;;;5051073;28;20028;-75
2023/01/25 03:10:10;;;;;;;73.32;36.60;;;1.90;99.90;;;;;;5037310;28;20537;-76
2023/01/25 03:12:35;;;;;;;72.10;35.03;;;1.90;99.90;;;;;;5051723;28;20053;-75
2023/01/25 03:15:01;;;;;;;74.22;34.97;;;1.90;99.90;;;;;;5050729;28;20025;-76
2023/01/25 03:17:26;;;;;;;70.15;33.60;;;1.90;99.90;;;;;;5047142;28;20021;-75
2023/01/25 03:19:52;;;;;;;75.15;35.60;;;1.90;99.90;;;;;;5050086;28;20032;-76
2023/01/25 03:22:18;;;;;;;70.97;34.60;;;1.90;99.90;;;;;;5051885;28;20100;-75
2023/01/25 03:24:44;;;;;;;75.07;35.55;;;1.90;99.90;;;;;;5051655;28;20029;-76
2023/01/25 03:27:10;;;;;;;70.85;34.80;;;1.90;99.90;;;;;;5051413;28;20074;-76
2023/01/25 03:29:36;;;;;;;72.07;34.83;;;1.90;99.90;;;;;;5048725;28;20029;-76
2023/01/25 03:32:02;;;;;;;69.05;34.20;;;1.80;99.90;;;;;;5044952;28;20025;-75
2023/01/25 03:34:28;;;;;;;73.93;35.00;;;1.80;99.90;;;;;;5047880;28;20025;-76
2023/01/25 03:36:53;;;;;;;71.72;36.03;;;1.80;99.90;;;;;;5037063;28;20566;-75
2023/01/25 03:39:19;;;;;;;74.88;35.42;;;1.80;99.90;;;;;;5051340;28;20028;-76
2023/01/25 03:41:44;;;;;;;71.70;34.88;;;1.80;99.90;;;;;;5050288;28;20411;-75
2023/01/25 03:44:10;;;;;;;70.55;34.80;;;1.80;99.90;;;;;;5033267;28;20022;-75
2023/01/25 03:46:40;;;;;;;72.80;35.20;;;1.70;99.90;;;;;;5050033;28;20013;-75
2023/01/25 03:49:06;;;;;;;73.97;34.67;;;1.70;99.90;;;;;;5050060;28;20393;-76
2023/01/25 03:51:32;;;;;;;72.57;33.20;;;1.70;99.90;;;;;;5038229;28;20121;-75
2023/01/25 03:53:58;;;;;;;75.32;36.65;;;1.70;99.90;;;;;;5049812;28;20083;-75
2023/01/25 03:56:24;;;;;;;76.82;35.70;;;1.70;99.90;;;;;;5036273;28;20028;-75
2023/01/25 03:58:49;;;;;;;77.20;36.95;;;1.70;99.90;;;;;;5050507;28;20024;-75
2023/01/25 04:01:15;;;;;;;76.28;36.63;;;1.70;99.90;;;;;;5050476;28;20108;-75
2023/01/25 04:03:40;;;;;;;78.40;35.88;;;1.70;99.90;;;;;;5043257;28;20399;-75
2023/01/25 04:06:06;;;;;;;76.97;36.50;;;1.60;99.90;;;;;;5039447;28;20025;-75
2023/01/25 04:08:32;;;;;;;73.30;35.08;;;1.60;99.90;;;;;;5050384;28;20029;-75
2023/01/25 04:11:04;;;;;;;76.20;36.55;;;1.60;99.90;;;;;;5038160;28;20029;-75
2023/01/25 04:13:30;;;;;;;77.10;35.40;;;1.60;99.90;;;;;;5047665;28;20083;-76
2023/01/25 04:15:56;;;;;;;75.07;35.60;;;1.50;99.90;;;;;;5041493;28;20025;-76
2023/01/25 04:18:22;;;;;;;76.93;35.78;;;1.50;99.90;;;;;;5038561;28;20432;-75
2023/01/25 04:20:55;;;;;;;76.07;35.42;;;1.50;99.90;;;;;;5040945;28;20020;-75
2023/01/25 04:23:21;;;;;;;75.90;35.58;;;1.50;99.90;;;;;;5044433;28;20039;-75
2023/01/25 04:25:54;;;;;;;76.20;34.28;;;1.50;99.90;;;;;;5049173;28;20021;-75
2023/01/25 04:28:20;;;;;;;77.78;35.40;;;1.50;99.90;;;;;;5049272;28;20041;-75
2023/01/25 04:30:46;;;;;;;78.15;34.83;;;1.50;99.90;;;;;;5049296;28;20013;-75
2023/01/25 04:33:12;;;;;;;76.75;35.75;;;1.50;99.90;;;;;;5048863;28;20032;-75
2023/01/25 04:35:37;;;;;;;74.35;34.33;;;1.50;99.90;;;;;;5046806;28;20017;-75
2023/01/25 04:38:03;;;;;;;76.95;35.97;;;1.40;99.90;;;;;;5047719;28;20048;-75
2023/01/25 04:40:30;;;;;;;74.78;33.85;;;1.40;99.90;;;;;;5045633;28;20627;-75
2023/01/25 04:42:56;;;;;;;79.15;36.40;;;1.40;99.90;;;;;;5047141;28;20025;-75
2023/01/25 04:45:22;;;;;;;74.80;34.97;;;1.40;99.90;;;;;;5044506;28;20109;-76
2023/01/25 04:47:48;;;;;;;78.80;36.03;;;1.40;99.90;;;;;;5049964;28;20249;-75
2023/01/25 04:50:14;;;;;;;82.45;36.97;;;1.40;99.90;;;;;;5036007;28;20045;-75
2023/01/25 04:52:41;;;;;;;86.85;38.05;;;1.40;99.90;;;;;;5033901;28;20107;-75
2023/01/25 04:55:07;;;;;;;80.25;36.20;;;1.40;99.90;;;;;;5041018;28;20026;-75
2023/01/25 04:57:33;;;;;;;77.68;36.28;;;1.40;99.90;;;;;;5030365;28;20026;-75
2023/01/25 04:59:58;;;;;;;78.78;35.97;;;1.40;99.90;;;;;;5040731;28;20603;-75
2023/01/25 05:02:25;;;;;;;83.68;37.85;;;1.30;99.90;;;;;;5042731;28;20029;-75
2023/01/25 05:04:51;;;;;;;76.53;34.97;;;1.30;99.90;;;;;;5040481;28;20376;-75
2023/01/25 05:07:17;;;;;;;79.60;35.95;;;1.30;99.90;;;;;;5032884;28;20036;-75
2023/01/25 05:09:42;;;;;;;78.88;36.15;;;1.30;99.90;;;;;;5039087;28;20032;-75
2023/01/25 05:12:10;;;;;;;81.63;37.20;;;1.30;99.90;;;;;;5041103;28;20464;-75
2023/01/25 05:14:37;;;;;;;83.78;37.20;;;1.30;99.90;;;;;;5046053;28;20017;-75
2023/01/25 05:17:04;;;;;;;105.97;50.83;;;1.30;99.90;;;;;;5028119;28;20044;-74
2023/01/25 05:19:30;;;;;;;87.00;39.50;;;1.30;99.90;;;;;;5041863;28;20025;-75
2023/01/25 05:21:58;;;;;;;81.13;36.28;;;1.30;99.90;;;;;;5030239;28;20036;-75
2023/01/25 05:24:29;;;;;;;81.22;37.10;;;1.30;99.90;;;;;;5040287;28;20418;-75
2023/01/25 05:27:04;;;;;;;81.53;37.65;;;1.30;99.90;;;;;;5049833;28;20029;-75
2023/01/25 05:29:35;;;;;;;84.50;37.70;;;1.30;99.90;;;;;;5040740;28;20037;-75
2023/01/25 05:32:14;;;;;;;84.88;38.95;;;1.30;99.90;;;;;;5043406;28;20025;-75
2023/01/25 05:34:40;;;;;;;83.22;36.65;;;1.20;99.90;;;;;;5046552;28;20107;-75
2023/01/25 05:37:08;;;;;;;85.30;37.97;;;1.20;99.90;;;;;;5053815;28;20415;-75
2023/01/25 05:39:33;;;;;;;89.57;38.47;;;1.20;99.90;;;;;;5053490;28;20024;-75
2023/01/25 05:41:59;;;;;;;84.90;37.35;;;1.20;99.90;;;;;;5054259;28;20021;-75
2023/01/25 05:44:25;;;;;;;91.65;39.90;;;1.20;99.90;;;;;;5029627;28;20472;-75
2023/01/25 05:46:51;;;;;;;81.55;36.95;;;1.20;99.90;;;;;;5044248;28;20029;-75
2023/01/25 05:49:17;;;;;;;79.18;36.35;;;1.20;99.90;;;;;;5028965;28;20519;-75
2023/01/25 05:51:43;;;;;;;83.15;36.85;;;1.20;99.90;;;;;;5034215;28;20036;-75
2023/01/25 05:54:13;;;;;;;84.95;37.90;;;1.30;99.90;;;;;;5046792;28;20025;-75
2023/01/25 05:56:38;;;;;;;81.45;36.88;;;1.30;99.90;;;;;;5032560;28;20022;-76
2023/01/25 05:59:04;;;;;;;84.43;36.72;;;1.30;99.90;;;;;;5034631;28;20028;-75
2023/01/25 06:01:30;;;;;;;87.00;37.42;;;1.30;99.90;;;;;;5034399;28;20026;-75
2023/01/25 06:03:56;;;;;;;87.68;38.35;;;1.40;99.90;;;;;;5017362;28;20018;-75
2023/01/25 06:06:22;;;;;;;91.80;38.88;;;1.40;99.90;;;;;;5041561;28;20048;-76
2023/01/25 06:08:47;;;;;;;84.55;37.90;;;1.30;99.90;;;;;;5031576;28;20487;-76
2023/01/25 06:11:15;;;;;;;86.05;38.88;;;1.30;99.90;;;;;;5034383;28;20037;-76
2023/01/25 06:13:41;;;;;;;88.00;38.60;;;1.30;99.90;;;;;;5037779;28;20018;-76
2023/01/25 06:16:07;;;;;;;86.65;37.95;;;1.30;99.90;;;;;;5032065;28;20032;-76
2023/01/25 06:18:34;;;;;;;88.25;40.08;;;1.30;99.90;;;;;;5034204;28;20464;-76
2023/01/25 06:21:00;;;;;;;93.90;39.75;;;1.30;99.90;;;;;;5041773;28;20075;-76
2023/01/25 06:23:27;;;;;;;95.72;40.78;;;1.30;99.90;;;;;;5048255;28;20021;-76
2023/01/25 06:25:56;;;;;;;93.90;39.90;;;1.30;99.90;;;;;;5039824;28;20036;-75
2023/01/25 06:28:22;;;;;;;98.80;41.83;;;1.30;99.90;;;;;;5041505;28;20104;-76
2023/01/25 06:30:47;;;;;;;96.22;40.80;;;1.30;99.90;;;;;;5050239;28;20104;-76
2023/01/25 06:33:16;;;;;;;96.15;40.30;;;1.30;99.90;;;;;;5051310;28;20037;-76
2023/01/25 06:35:45;;;;;;;100.10;42.22;;;1.30;99.90;;;;;;5047025;28;20029;-75
2023/01/25 06:38:11;;;;;;;94.55;41.15;;;1.30;99.90;;;;;;5028565;28;20033;-76
2023/01/25 06:40:36;;;;;;;97.78;40.78;;;1.30;99.90;;;;;;5050227;28;20392;-76
2023/01/25 06:43:09;;;;;;;93.80;40.28;;;1.30;99.90;;;;;;5052176;28;20032;-76
2023/01/25 06:45:36;;;;;;;98.63;42.15;;;1.30;99.90;;;;;;5049375;28;20036;-75
2023/01/25 06:48:01;;;;;;;94.45;40.47;;;1.30;99.90;;;;;;5032771;28;20033;-76
2023/01/25 06:50:27;;;;;;;97.70;42.58;;;1.30;99.90;;;;;;5052927;28;20408;-76
2023/01/25 06:52:53;;;;;;;97.40;42.17;;;1.40;99.90;;;;;;5038049;28;20032;-76
2023/01/25 06:55:20;;;;;;;97.07;41.28;;;1.40;99.90;;;;;;5053342;28;20044;-76
2023/01/25 06:57:46;;;;;;;97.57;41.05;;;1.40;99.90;;;;;;5039153;28;20112;-76
2023/01/25 07:00:13;;;;;;;99.50;40.58;;;1.40;99.90;;;;;;5047661;28;20033;-76
2023/01/25 07:02:38;;;;;;;94.57;41.22;;;1.40;99.90;;;;;;5047294;28;20020;-76
2023/01/25 07:05:04;;;;;;;97.53;41.38;;;1.40;99.90;;;;;;5051543;28;20029;-76
2023/01/25 07:07:30;;;;;;;97.40;41.42;;;1.40;99.90;;;;;;5043419;28;20057;-76
2023/01/25 07:09:57;;;;;;;103.28;43.90;;;1.40;99.90;;;;;;5050550;28;20037;-76
2023/01/25 07:12:24;;;;;;;99.55;42.85;;;1.40;99.90;;;;;;5047610;28;20152;-76
2023/01/25 07:14:50;;;;;;;96.10;41.30;;;1.40;99.90;;;;;;5035076;28;20563;-76
2023/01/25 07:17:16;;;;;;;101.85;41.92;;;1.30;99.90;;;;;;5045114;28;20029;-76
2023/01/25 07:19:41;;;;;;;99.80;42.33;;;1.30;99.90;;;;;;5044174;28;20028;-76
2023/01/25 07:22:07;;;;;;;97.60;42.05;;;1.30;99.90;;;;;;5051247;28;20365;-76
2023/01/25 07:24:33;;;;;;;101.45;43.10;;;1.30;99.90;;;;;;5052237;28;20083;-76
2023/01/25 07:26:58;;;;;;;103.65;43.05;;;1.40;99.90;;;;;;5050614;28;20092;-76
2023/01/25 07:29:24;;;;;;;104.50;44.78;;;1.40;99.90;;;;;;5051972;28;20021;-76
2023/01/25 07:31:49;;;;;;;109.07;45.45;;;1.40;99.90;;;;;;5050904;28;20043;-76
2023/01/25 07:34:15;;;;;;;100.63;42.13;;;1.40;99.90;;;;;;5051648;28;20060;-75
2023/01/25 07:36:45;;;;;;;100.68;43.25;;;1.40;99.90;;;;;;5033438;28;20025;-75
2023/01/25 07:39:11;;;;;;;108.35;44.53;;;1.40;99.90;;;;;;5047650;28;20029;-75
2023/01/25 07:41:38;;;;;;;103.38;43.00;;;1.30;99.90;;;;;;5042599;28;20037;-75
2023/01/25 07:44:04;;;;;;;108.03;45.20;;;1.30;99.90;;;;;;5033983;28;20025;-76
2023/01/25 07:46:29;;;;;;;111.88;44.63;;;1.30;99.90;;;;;;5032761;28;20017;-75
2023/01/25 07:48:57;;;;;;;104.03;43.88;;;1.30;99.90;;;;;;5032929;28;20104;-76
2023/01/25 07:51:25;;;;;;;109.57;44.55;;;1.30;99.90;;;;;;5048329;28;20140;-76
2023/01/25 07:54:04;;;;;;;107.05;44.22;;;1.30;99.90;;;;;;5014186;28;20025;-75
2023/01/25 07:56:36;;;;;;;105.07;43.40;;;1.20;99.90;;;;;;5036940;28;20028;-75
2023/01/25 07:59:02;;;;;;;108.22;43.70;;;1.20;99.90;;;;;;5050998;28;20079;-75
2023/01/25 08:01:30;;;;;;;104.72;43.40;;;1.20;99.90;;;;;;5050451;28;20056;-75
2023/01/25 08:03:57;;;;;;;99.93;41.80;;;1.20;99.90;;;;;;5047219;28;20025;-76
2023/01/25 08:06:30;;;;;;;105.05;42.40;;;1.20;99.90;;;;;;5038610;28;20326;-76
2023/01/25 08:08:57;;;;;;;100.03;42.05;;;1.20;99.90;;;;;;5051177;28;20021;-75
2023/01/25 08:11:26;;;;;;;101.53;41.78;;;1.30;99.90;;;;;;5041751;28;20026;-76
2023/01/25 08:13:51;;;;;;;103.93;42.42;;;1.20;99.90;;;;;;5050316;28;20037;-75
2023/01/25 08:16:23;;;;;;;106.03;42.58;;;1.20;99.90;;;;;;5043593;28;20110;-75
2023/01/25 08:18:54;;;;;;;108.75;43.65;;;1.20;99.90;;;;;;5050614;28;20016;-75
2023/01/25 08:21:27;;;;;;;107.22;42.22;;;1.20;99.90;;;;;;5052251;28;20356;-75
2023/01/25 08:23:53;;;;;;;106.60;43.22;;;1.20;99.90;;;;;;5050285;28;20611;-74
2023/01/25 08:26:19;;;;;;;109.68;43.08;;;1.20;99.90;;;;;;5035627;28;20022;-74
2023/01/25 08:28:45;;;;;;;103.50;43.08;;;1.20;99.90;;;;;;5048798;28;20052;-74
2023/01/25 08:31:14;;;;;;;104.30;42.28;;;1.20;99.90;;;;;;5046474;28;20048;-75
2023/01/25 08:33:42;;;;;;;106.50;42.60;;;1.20;99.90;;;;;;5046388;28;20029;-75
2023/01/25 08:36:09;;;;;;;105.25;43.33;;;1.20;99.90;;;;;;5039726;28;20100;-75
2023/01/25 08:38:35;;;;;;;107.50;42.65;;;1.20;99.90;;;;;;5049795;28;20032;-75
2023/01/25 08:41:13;;;;;;;98.93;40.67;;;1.20;99.90;;;;;;5033738;28;20021;-75
2023/01/25 08:43:39;;;;;;;105.30;43.38;;;1.20;99.90;;;;;;5043580;28;20057;-75
2023/01/25 08:46:05;;;;;;;107.18;43.70;;;1.20;99.90;;;;;;5038693;28;20055;-75
2023/01/25 08:48:31;;;;;;;102.03;41.40;;;1.30;99.90;;;;;;5042258;28;20087;-75
2023/01/25 08:50:57;;;;;;;103.60;42.45;;;1.30;99.90;;;;;;5037122;28;20323;-75
2023/01/25 08:53:23;;;;;;;108.38;44.60;;;1.30;99.90;;;;;;5039732;28;20025;-74
2023/01/25 08:55:49;;;;;;;105.80;44.10;;;1.30;99.90;;;;;;5049338;28;20387;-75
2023/01/25 08:58:18;;;;;;;104.45;43.10;;;1.30;99.90;;;;;;5036875;28;20492;-74
2023/01/25 09:00:44;;;;;;;107.90;44.38;;;1.30;99.90;;;;;;5049385;28;20029;-75
2023/01/25 09:03:10;;;;;;;108.40;43.83;;;1.30;99.90;;;;;;5048645;28;20466;-75
2023/01/25 09:05:37;;;;;;;100.80;41.75;;;1.30;99.90;;;;;;5049340;28;20025;-75
2023/01/25 09:08:05;;;;;;;108.40;42.35;;;1.30;99.90;;;;;;5048891;28;20033;-75
2023/01/25 09:10:30;;;;;;;110.70;44.33;;;1.30;99.90;;;;;;5049978;28;20021;-74
2023/01/25 09:12:56;;;;;;;108.63;42.85;;;1.30;99.90;;;;;;5050154;28;20048;-75
2023/01/25 09:15:22;;;;;;;106.75;43.70;;;1.30;99.90;;;;;;5048927;28;20048;-75
2023/01/25 09:17:51;;;;;;;105.78;43.60;;;1.30;99.90;;;;;;5049479;28;20044;-75
2023/01/25 09:20:17;;;;;;;106.82;44.38;;;1.30;99.90;;;;;;5047523;28;20049;-74
2023/01/25 09:22:43;;;;;;;108.05;43.90;;;1.30;99.90;;;;;;5048576;28;20324;-75
2023/01/25 09:25:08;;;;;;;105.22;42.88;;;1.30;99.90;;;;;;5042590;28;20025;-75
2023/01/25 09:27:34;;;;;;;106.22;42.83;;;1.30;99.90;;;;;;5049241;28;20017;-75
2023/01/25 09:30:00;;;;;;;106.65;43.85;;;1.20;99.90;;;;;;5048981;28;20036;-75
2023/01/25 09:32:25;;;;;;;104.47;43.10;;;1.20;99.90;;;;;;5043297;28;20044;-75
2023/01/25 09:34:51;;;;;;;109.95;44.13;;;1.30;99.90;;;;;;5045526;28;20021;-75
2023/01/25 09:37:17;;;;;;;102.95;42.40;;;1.30;99.90;;;;;;5040700;28;20028;-75
2023/01/25 09:39:42;;;;;;;100.45;41.60;;;1.30;99.90;;;;;;5041800;28;20025;-75
2023/01/25 09:42:21;;;;;;;99.93;41.00;;;1.30;99.90;;;;;;5024480;28;20396;-75
2023/01/25 09:45:02;;;;;;;98.63;41.05;;;1.30;99.90;;;;;;5042362;28;20016;-75
2023/01/25 09:47:51;;;;;;;100.43;42.55;;;1.30;99.90;;;;;;5042743;28;20523;-75
2023/01/25 09:50:31;;;;;;;102.78;41.38;;;1.30;99.90;;;;;;5037556;28;20049;-75
2023/01/25 09:53:14;;;;;;;102.35;42.22;;;1.30;99.90;;;;;;5029731;28;20033;-75
2023/01/25 09:55:40;;;;;;;100.55;42.10;;;1.30;99.90;;;;;;5044077;28;20654;-74
2023/01/25 09:58:13;;;;;;;102.18;41.25;;;1.30;99.90;;;;;;5043328;28;20044;-75
2023/01/25 10:00:48;;;;;;;102.10;42.75;;;1.30;99.90;;;;;;5041058;28;20063;-75
2023/01/25 10:03:21;;;;;;;96.60;40.85;;;1.30;99.90;;;;;;5012254;28;20080;-75
2023/01/25 10:05:50;;;;;;;93.72;39.47;;;1.40;99.90;;;;;;5046320;28;20476;-75
2023/01/25 10:08:28;;;;;;;98.55;40.70;;;1.30;99.90;;;;;;5049572;28;20078;-74
2023/01/25 10:11:18;;;;;;;97.45;39.85;;;1.40;99.90;;;;;;5039512;28;20079;-75
2023/01/25 10:13:44;;;;;;;97.65;41.50;;;1.40;99.90;;;;;;5034747;28;20013;-75
2023/01/25 10:16:22;;;;;;;100.95;40.75;;;1.40;99.90;;;;;;5049485;28;20075;-74
2023/01/25 10:19:17;;;;;;;98.95;40.78;;;1.40;99.90;;;;;;5048920;28;20021;-75
2023/01/25 10:21:47;;;;;;;98.22;41.47;;;1.40;99.90;;;;;;5041845;28;20051;-75
2023/01/25 10:24:34;;;;;;;98.45;39.88;;;1.40;99.90;;;;;;5053168;28;20402;-75
2023/01/25 10:27:14;;;;;;;98.88;41.10;;;1.40;99.90;;;;;;5052348;28;20060;-74
2023/01/25 10:29:40;;;;;;;97.38;40.17;;;1.40;99.90;;;;;;5052574;28;20029;-75
2023/01/25 10:32:33;;;;;;;102.22;41.10;;;1.40;99.90;;;;;;5052459;28;20096;-75
2023/01/25 10:35:16;;;;;;;93.03;39.15;;;1.40;99.90;;;;;;5049537;28;20048;-74
2023/01/25 10:37:43;;;;;;;92.63;39.63;;;1.50;99.90;;;;;;5052422;28;20027;-75
2023/01/25 10:40:15;;;;;;;91.97;39.22;;;1.50;99.90;;;;;;5052761;28;20068;-74
2023/01/25 10:42:47;;;;;;;93.63;38.63;;;1.50;99.90;;;;;;5043850;28;20148;-74
2023/01/25 10:45:14;;;;;;;87.80;38.05;;;1.50;99.90;;;;;;5046595;28;20619;-74
2023/01/25 10:47:46;;;;;;;96.30;39.20;;;1.50;99.90;;;;;;5050079;28;20021;-74
2023/01/25 10:50:37;;;;;;;91.10;38.45;;;1.40;99.90;;;;;;5044136;28;20052;-75
2023/01/25 10:53:03;;;;;;;95.55;39.75;;;1.40;99.90;;;;;;5049584;28;20065;-75
2023/01/25 10:55:29;;;;;;;91.88;38.88;;;1.40;99.90;;;;;;5039936;28;20110;-75
2023/01/25 10:57:59;;;;;;;88.40;36.78;;;1.40;99.90;;;;;;5036393;28;20482;-75
2023/01/25 11:00:39;;;;;;;92.15;37.13;;;1.40;99.90;;;;;;5051825;28;20094;-75
2023/01/25 11:03:18;;;;;;;93.85;38.60;;;1.40;99.90;;;;;;5052177;28;20028;-75
2023/01/25 11:05:53;;;;;;;86.97;37.63;;;1.30;99.90;;;;;;5050072;28;20021;-75
2023/01/25 11:08:34;;;;;;;90.97;37.45;;;1.30;99.90;;;;;;5045531;28;20079;-75
2023/01/25 11:11:25;;;;;;;90.20;37.47;;;1.30;99.90;;;;;;5051518;28;20025;-75
2023/01/25 11:13:53;;;;;;;93.45;37.38;;;1.40;99.90;;;;;;5052432;28;20101;-74
2023/01/25 11:16:27;;;;;;;95.47;38.00;;;1.40;99.90;;;;;;5051955;28;20016;-75
2023/01/25 11:18:55;;;;;;;86.63;36.80;;;1.40;99.90;;;;;;5051964;28;20112;-74
2023/01/25 11:21:24;;;;;;;87.32;36.90;;;1.40;99.90;;;;;;5014993;28;20029;-75
2023/01/25 11:24:08;;;;;;;90.85;36.80;;;1.40;99.90;;;;;;5044085;28;20498;-75
2023/01/25 11:26:39;;;;;;;91.55;37.17;;;1.40;99.90;;;;;;5050929;28;20468;-75
2023/01/25 11:29:09;;;;;;;93.38;38.03;;;1.40;99.90;;;;;;5050448;28;20074;-75
2023/01/25 11:31:35;;;;;;;93.80;38.33;;;1.40;99.90;;;;;;5048104;28;20543;-75
2023/01/25 11:34:00;;;;;;;92.35;38.28;;;1.40;99.90;;;;;;5050555;28;20100;-74
2023/01/25 11:36:51;;;;;;;96.78;38.28;;;1.50;99.90;;;;;;5048594;28;20452;-74
2023/01/25 11:39:50;;;;;;;95.28;38.15;;;1.60;99.90;;;;;;5050214;28;20021;-75
2023/01/25 11:42:43;;;;;;;95.45;38.80;;;1.60;99.90;;;;;;5020536;28;20116;-75
2023/01/25 11:45:34;;;;;;;95.40;40.08;;;1.50;99.90;;;;;;5050649;28;20503;-75
2023/01/25 11:48:31;;;;;;;100.25;41.13;;;1.50;99.90;;;;;;5050623;28;20055;-75
2023/01/25 11:51:12;;;;;;;102.63;40.10;;;1.50;99.90;;;;;;5042574;28;20044;-75
2023/01/25 11:54:07;;;;;;;104.68;39.92;;;1.60;99.90;;;;;;5049406;28;20175;-75
2023/01/25 11:56:51;;;;;;;98.47;39.90;;;1.60;99.90;;;;;;5031630;28;20037;-74
2023/01/25 11:59:29;;;;;;;100.47;40.83;;;1.60;99.90;;;;;;5044882;28;20036;-75
2023/01/25 12:02:23;;;;;;;103.45;41.08;;;1.60;99.90;;;;;;5041926;28;20030;-75
2023/01/25 12:05:20;;;;;;;105.88;43.17;;;1.60;99.90;;;;;;5050124;28;20021;-74
2023/01/25 12:07:54;;;;;;;108.88;43.55;;;1.70;99.90;;;;;;5031185;28;20036;-75
2023/01/25 12:10:43;;;;;;;114.60;44.53;;;1.70;99.90;;;;;;5044137;28;20052;-74
2023/01/25 12:13:46;;;;;;;110.25;42.97;;;1.70;99.90;;;;;;5036196;28;20404;-75
2023/01/25 12:16:49;;;;;;;115.90;44.47;;;1.70;99.90;;;;;;5042354;28;20021;-75
2023/01/25 12:19:36;;;;;;;113.63;44.75;;;1.70;99.90;;;;;;5035233;28;20104;-75
2023/01/25 12:22:26;;;;;;;115.47;45.22;;;1.70;99.90;;;;;;5041207;28;20068;-76
2023/01/25 12:25:25;;;;;;;108.25;43.33;;;1.70;99.90;;;;;;5044473;28;20532;-75
2023/01/25 12:28:12;;;;;;;106.32;42.85;;;1.70;99.90;;;;;;5050134;28;20056;-75
2023/01/25 12:30:53;;;;;;;105.07;41.75;;;1.70;99.90;;;;;;5047958;28;20024;-75
2023/01/25 12:33:37;;;;;;;100.18;39.88;;;1.70;99.90;;;;;;5039989;28;20528;-75
2023/01/25 12:36:10;;;;;;;94.07;39.83;;;1.70;99.90;;;;;;5031591;28;20037;-75
2023/01/25 12:38:54;;;;;;;95.88;39.20;;;1.70;99.90;;;;;;5036098;28;20032;-75
2023/01/25 12:41:27;;;;;;;96.55;38.10;;;1.70;99.90;;;;;;5019996;28;20025;-75
2023/01/25 12:44:08;;;;;;;96.75;39.00;;;1.70;99.90;;;;;;5034076;28;20025;-75
2023/01/25 12:46:54;;;;;;;91.43;36.72;;;1.70;99.90;;;;;;5036924;28;20018;-75
2023/01/25 12:49:38;;;;;;;96.28;38.38;;;1.60;99.90;;;;;;5022545;28;20045;-75